22:32
Airports
History
Links
Donate
Help keep this website running!
PayPal
Bitcoin
This page is community maintained. The information is intended for PC simulator navigation or reference.
Always use approved charts for navigation.
EGGW
London Luton
London Luton (EGGW)
Luton, England, United Kingdom
(C)
Lat/Lng:51° 52' 28.66" N / 0° 22' 6.42" W
51.874629 / -0.36845
Elevation:526'ft / 160mMSL
ID / ICAO:EGGW
Runways:1
Longest:08-26
Asphalt 2,157m / 7,075ft
Controlled:Yes
METAR22:20 GMT 2017-09-19
Altimeter: 30.15
Visibility: 6.2 statute miles
Wind: 5 knots (from 210°)
Temp: 9°c / 48°f
Humidity: 93.4%

METAR: EGGW 192220Z AUTO 21005KT 9999 NCD 09/08 Q1021

(Powered by phpweather)
Airport Radio Frequencies
Arrival and Departure Information: 120.57
Ground: 121.75
Tower: 126.72, 132.55
Approach: 128.75, 129.55
Nearby VORs <50NM
Nearby NDBs
Runway 08 / 26
Dimensions:2156.5 x 46m 7075' x 151'ft
Surface:Asphalt
Edge Lights:High intensity
Runway 08 [A]Runway 26 [B]
Heading:074°TH 254°TH
Lat:
Lng:
51° 52' 19.27"N
0° 23' 0.79"W
51° 52' 38.06"N
0° 21' 12.05"W
ALS:ALSF-ICalvert
TDZ:Yes, lightedYes, lighted
User Notes and Comments
51° 52' 28.66" N / 0° 22' 6.42" W
Distance To
Airport ID:
Nearby Airports
(C) Panshanger 10.3 NM
EGLG ESE 119°
4 RAF Henlow 10.4 NM
EGWE NNE 15°
4 Henlow 10.6 NM
EG50 NNE 15°
(C) Leavesden 13.0 NM
EGTI S 189°
4 Old Warden 14.8 NM
EGTH N
(C) Elstree 15.2 NM
EGTR S 173°
(C) RAF Halton 16.8 NM
EGWN WSW 250°
VFR Chart
Flight Planning at SkyVector.com